Aviation Digital Data Service (ADDS)

Output produced by METARs form (0059 UTC 22 September 2017)
found at http://www.aviationweather.gov/adds/metars/
 
SPHY 211700Z 2118/2218 36010KT 9999 FEW012 TX19/2120Z TNM02/2211Z 
     FM211900 36010KT 9999 SCT012 
     BECMG 2122/2201 00000KT CAVOK
       
TAF SPQU 212300Z 2200/2224 02003KT 9999 FEW120 TX22/2218Z TN10/2210Z 
     BECMG 2213/22150 25010KT
       
SPHO 211700Z 2118/2218 VRB04KT 9999 FEW040 TX27/2119Z TN06/2211Z 
     TEMPO 2120/2123 28010KT 
     BECMG 2123/2201 CAVOK
       
SPJR 211700Z 2118/2218 16010KT 9999 FEW027 SCT050 TX26/2119Z TN04/2211Z 
     BECMG 2122/2124 00000KT
       
SPHI 212300Z 2200/2224 19015KT CAVOK TX23/2220Z TN16/2211Z 
     BECMG 2205/2207 17005KT OVC015 
     BECMG 2213/2215 BKN020 
     FM211700 19015KT CAVOK
       
TAF SPZO 212255Z 2200/2224 09008KT 9999 SCT043 SCT080 TX22/2219Z TN05/2211Z 
     TEMPO 2210/2214 FEW025 SCT040 BKN070 
     BECMG 2214/2218 FEW046TCU SCT080 
     TEMPO 2218/2222 36012KT SCT043 BKN080 
     BECMG 2222/2224 SCT040
       
SPLO 211700Z 2118/2218 17011KT 9999 OVC030 TX20/2119Z TN15/2211Z
       
TAF SPQT 212300Z 2200/2224 00000KT 9999 FEW020 SCT100 TX34/2219Z TN23/2211Z 
     TEMPO 2206/2210 06012KT 4000 SHRA BKN015 FEW025CB BKN100 
     TEMPO 2211/2212 VRB02KT 8000 BKN006 BKN100 
     BECMG 2213/2215 03005KT BKN020 SCT100 
     TEMPO 2219/2223 05012KT 4000 SHRA BKN015 FEW025TCU
       
SPJI 211700Z 2118/2218 00000KT 9999 FEW040 TX34/2119Z TN16/2211Z
       
SPJL 212300Z 2200/2224 VRB05KT 9999 SCT020 TX21/2218Z TN04/2210Z
       
SPSO 212300Z 2200/2224 23015KT 8000 NSC TX23/2220Z TN12/2210Z 
     BECMG 2203/2205 VRB02KT OVC013 
     TEMPO 2210/2213 4000 BR OVC010 
     BECMG 2215/2217 24010KT OVC015 
     BECMG 2219/2221 FEW020
       
SPCL 212300Z 2200/2224 VRB02KT 8000 FEW015 TX32/2219Z TN22/2211Z 
     TEMPO 2210/2212 5000 BR 
     FM221400 05006KT 9999 FEW020
       
SPTU 211700Z 2118/2218 33005KT 9000 NSC TX37/2119Z TN20/2211Z 
     TEMPO 2118/2121 SCT010 
     BECMG 2200/2202 CAVOK
       
SPTN 212300Z 2200/2224 22005KT 8000 OVC015 TX20/2220Z TN11/2210Z 
     TEMPO 2201/2204 5000 BR OVC008 
     BECMG 2204/2206 OVC010 
     BECMG 2212/2214 OVC015 
     FM221900 21010KT CAVOK
       
SPYL 211700Z 2118/2218 19016KT CAVOK TX26/2119Z TN16/2211Z 
     FM220300 21010KT 9999C SCT030
       
SPST 212300Z 2200/2224 VRB03KT 9999 FEW020 TX35/2219Z TN22/2211Z
       
SPGM 211700Z 2118/2218 02007KT 8000 FEW030 B15
       
SPRU 212300Z 2200/2224 14008KT 9999 SCT020 TX19/2220Z TN15/2211Z 
     BECMG 2201/2203 OVC015 
     BECMG 2206/2208 5000 BR OVC010 
     BECMG 2213/2215 7000 NSW BKN015 
     FM221900 17012KT 8000 SCT020
       
TAF SPME 212300Z 2200/2224 VRB02KT 9999 BKN012 TX27/2219Z TN21/2211Z
       
SPMS 211700Z 2118/2218 05004KT 9999 FEW020 TX35/2120Z TN22/2211Z 
     TEMPO 2212/2215 00000KT 5000 BR SCT015